Wetterdaten: Donnerstag, 25.04.2013
Datum Zeit Temp. Auen Feucht Auen Luftdruck Regen Richtung Richtung Windben
25.04.2013 00:00 9,9 C 87 % 1026,4 hPa 0,0 mm W 279 3,2 km/h (1 Bft)
25.04.2013 00:05 9,8 C 87 % 1026,5 hPa 0,0 mm W 279 3,2 km/h (1 Bft)
25.04.2013 00:10 9,6 C 87 % 1026,5 hPa 0,0 mm W 279 1,6 km/h (1 Bft)
25.04.2013 00:15 9,4 C 88 % 1026,4 hPa 0,0 mm W 279 1,6 km/h (1 Bft)
25.04.2013 00:20 9,4 C 89 % 1026,4 hPa 0,0 mm W 270 1,6 km/h (1 Bft)
25.04.2013 00:25 9,6 C 89 % 1026,5 hPa 0,0 mm W 270 3,2 km/h (1 Bft)
25.04.2013 00:30 9,1 C 87 % 1026,5 hPa 0,0 mm W 270 1,6 km/h (1 Bft)
25.04.2013 00:35 8,8 C 89 % 1026,5 hPa 0,0 mm W 270 1,6 km/h (1 Bft)
25.04.2013 00:40 8,9 C 90 % 1026,5 hPa 0,0 mm W 270 1,6 km/h (1 Bft)
25.04.2013 00:45 9,1 C 89 % 1026,5 hPa 0,0 mm W 270 3,2 km/h (1 Bft)
25.04.2013 00:50 8,8 C 89 % 1026,5 hPa 0,0 mm W 270 1,6 km/h (1 Bft)
25.04.2013 00:55 8,6 C 90 % 1026,5 hPa 0,0 mm W 270 3,2 km/h (1 Bft)
25.04.2013 01:00 8,8 C 90 % 1026,5 hPa 0,0 mm W 270 3,2 km/h (1 Bft)
25.04.2013 01:05 8,7 C 90 % 1026,5 hPa 0,0 mm W 270 1,6 km/h (1 Bft)
25.04.2013 01:10 8,4 C 90 % 1026,5 hPa 0,0 mm W 270 1,6 km/h (1 Bft)
25.04.2013 01:15 8,3 C 90 % 1026,4 hPa 0,0 mm N 0 0,0 km/h (0 Bft)
25.04.2013 01:20 8,5 C 91 % 1026,3 hPa 0,0 mm W 270 1,6 km/h (1 Bft)
25.04.2013 01:25 8,6 C 90 % 1026,3 hPa 0,0 mm W 270 1,6 km/h (1 Bft)
25.04.2013 01:30 8,3 C 90 % 1026,3 hPa 0,0 mm N 0 0,0 km/h (0 Bft)
25.04.2013 01:35 8,1 C 90 % 1026,2 hPa 0,0 mm W 270 3,2 km/h (1 Bft)
25.04.2013 01:40 8,3 C 91 % 1026,2 hPa 0,0 mm W 270 3,2 km/h (1 Bft)
25.04.2013 01:45 8,6 C 91 % 1026,2 hPa 0,0 mm W 270 4,8 km/h (1 Bft)
25.04.2013 01:50 8,6 C 91 % 1026,1 hPa 0,0 mm W 270 1,6 km/h (1 Bft)
25.04.2013 01:55 8,6 C 91 % 1026,1 hPa 0,0 mm W 270 1,6 km/h (1 Bft)
25.04.2013 02:00 8,6 C 90 % 1026,1 hPa 0,0 mm W 270 1,6 km/h (1 Bft)
25.04.2013 02:05 8,4 C 90 % 1026,1 hPa 0,0 mm W 270 1,6 km/h (1 Bft)
25.04.2013 02:10 8,4 C 90 % 1026,1 hPa 0,0 mm W 270 4,8 km/h (1 Bft)
25.04.2013 02:15 8,3 C 90 % 1026,1 hPa 0,0 mm W 270 1,6 km/h (1 Bft)
25.04.2013 02:20 8,3 C 90 % 1026,1 hPa 0,0 mm W 270 3,2 km/h (1 Bft)
25.04.2013 02:25 8,1 C 90 % 1026,1 hPa 0,0 mm W 270 3,2 km/h (1 Bft)
25.04.2013 02:30 8,1 C 91 % 1026,1 hPa 0,0 mm W 270 1,6 km/h (1 Bft)
25.04.2013 02:35 8,2 C 91 % 1026,2 hPa 0,0 mm W 270 1,6 km/h (1 Bft)
25.04.2013 02:40 8,3 C 91 % 1026,2 hPa 0,0 mm W 270 3,2 km/h (1 Bft)
25.04.2013 02:45 8,3 C 91 % 1026,1 hPa 0,0 mm W 270 4,8 km/h (1 Bft)
25.04.2013 02:50 8,2 C 90 % 1026,2 hPa 0,0 mm N 0 0,0 km/h (0 Bft)
25.04.2013 02:55 7,9 C 90 % 1026,1 hPa 0,0 mm W 270 1,6 km/h (1 Bft)
25.04.2013 03:00 7,8 C 91 % 1026,1 hPa 0,0 mm N 0 0,0 km/h (0 Bft)
25.04.2013 03:05 7,7 C 91 % 1026,1 hPa 0,0 mm N 0 0,0 km/h (0 Bft)
25.04.2013 03:10 7,7 C 91 % 1026,1 hPa 0,0 mm W 270 1,6 km/h (1 Bft)
25.04.2013 03:15 7,6 C 91 % 1026,1 hPa 0,0 mm N 0 0,0 km/h (0 Bft)
25.04.2013 03:20 7,4 C 91 % 1026,1 hPa 0,0 mm N 0 0,0 km/h (0 Bft)
25.04.2013 03:25 7,3 C 91 % 1026,1 hPa 0,0 mm N 0 0,0 km/h (0 Bft)
25.04.2013 03:30 7,3 C 92 % 1026,1 hPa 0,0 mm N 0 0,0 km/h (0 Bft)
25.04.2013 03:35 7,2 C 92 % 1026,2 hPa 0,0 mm N 0 0,0 km/h (0 Bft)
25.04.2013 03:40 7,1 C 92 % 1026,2 hPa 0,0 mm N 0 0,0 km/h (0 Bft)
25.04.2013 03:45 7,1 C 92 % 1026,2 hPa 0,0 mm W 270 3,2 km/h (1 Bft)
25.04.2013 03:50 7,2 C 92 % 1026,1 hPa 0,0 mm W 270 3,2 km/h (1 Bft)
25.04.2013 03:55 6,9 C 92 % 1026,0 hPa 0,0 mm N 0 0,0 km/h (0 Bft)
25.04.2013 04:00 6,8 C 92 % 1026,0 hPa 0,0 mm N 0 0,0 km/h (0 Bft)
25.04.2013 04:05 6,8 C 92 % 1026,0 hPa 0,0 mm N 0 0,0 km/h (0 Bft)
25.04.2013 04:10 6,8 C 92 % 1026,0 hPa 0,0 mm W 270 3,2 km/h (1 Bft)
25.04.2013 04:15 6,7 C 92 % 1026,0 hPa 0,0 mm N 0 0,0 km/h (0 Bft)
25.04.2013 04:20 6,6 C 92 % 1026,0 hPa 0,0 mm N 0 0,0 km/h (0 Bft)
25.04.2013 04:25 6,5 C 92 % 1026,1 hPa 0,0 mm W 270 3,2 km/h (1 Bft)
25.04.2013 04:30 6,7 C 93 % 1026,0 hPa 0,0 mm W-NW 292 3,2 km/h (1 Bft)
25.04.2013 04:35 6,9 C 93 % 1026,1 hPa 0,0 mm W-NW 292 1,6 km/h (1 Bft)
25.04.2013 04:40 6,5 C 92 % 1026,1 hPa 0,0 mm W-NW 292 1,6 km/h (1 Bft)
25.04.2013 04:45 6,4 C 93 % 1026,1 hPa 0,0 mm N 0 0,0 km/h (0 Bft)
25.04.2013 04:50 6,4 C 93 % 1026,1 hPa 0,0 mm N 0 0,0 km/h (0 Bft)
25.04.2013 04:55 6,6 C 93 % 1026,1 hPa 0,0 mm W-NW 292 3,2 km/h (1 Bft)
25.04.2013 05:00 6,6 C 93 % 1026,1 hPa 0,0 mm W-NW 292 1,6 km/h (1 Bft)
25.04.2013 05:05 6,6 C 93 % 1026,1 hPa 0,0 mm N 0 0,0 km/h (0 Bft)
25.04.2013 05:10 6,8 C 93 % 1026,1 hPa 0,0 mm W-NW 292 3,2 km/h (1 Bft)
25.04.2013 05:15 6,6 C 92 % 1026,2 hPa 0,0 mm W-NW 292 1,6 km/h (1 Bft)
25.04.2013 05:20 6,3 C 92 % 1026,2 hPa 0,0 mm N 0 0,0 km/h (0 Bft)
25.04.2013 05:25 6,3 C 93 % 1026,2 hPa 0,0 mm N 0 0,0 km/h (0 Bft)
25.04.2013 05:30 6,3 C 93 % 1026,2 hPa 0,0 mm W-NW 292 1,6 km/h (1 Bft)
25.04.2013 05:35 6,3 C 93 % 1026,1 hPa 0,0 mm N 0 0,0 km/h (0 Bft)
25.04.2013 05:40 6,3 C 93 % 1026,2 hPa 0,0 mm W-NW 292 1,6 km/h (1 Bft)
25.04.2013 05:45 6,2 C 93 % 1026,1 hPa 0,0 mm W-NW 292 3,2 km/h (1 Bft)
25.04.2013 05:50 6,3 C 93 % 1026,2 hPa 0,0 mm W-NW 292 4,8 km/h (1 Bft)
25.04.2013 05:55 6,4 C 93 % 1026,2 hPa 0,0 mm W 270 4,8 km/h (1 Bft)
25.04.2013 06:00 6,3 C 93 % 1026,3 hPa 0,0 mm W 270 4,8 km/h (1 Bft)
25.04.2013 06:05 6,1 C 93 % 1026,2 hPa 0,0 mm N 0 0,0 km/h (0 Bft)
25.04.2013 06:10 6,0 C 93 % 1026,3 hPa 0,0 mm N 0 0,0 km/h (0 Bft)
25.04.2013 06:15 5,9 C 93 % 1026,3 hPa 0,0 mm N 0 0,0 km/h (0 Bft)
25.04.2013 06:20 5,9 C 93 % 1026,3 hPa 0,0 mm W 270 1,6 km/h (1 Bft)
25.04.2013 06:25 6,0 C 93 % 1026,4 hPa 0,0 mm N 0 0,0 km/h (0 Bft)
25.04.2013 06:30 6,1 C 93 % 1026,4 hPa 0,0 mm W 270 1,6 km/h (1 Bft)
25.04.2013 06:35 6,4 C 93 % 1026,4 hPa 0,0 mm N 0 0,0 km/h (0 Bft)
25.04.2013 06:40 6,4 C 93 % 1026,4 hPa 0,0 mm N 0 0,0 km/h (0 Bft)
25.04.2013 06:45 6,5 C 93 % 1026,5 hPa 0,0 mm W 270 1,6 km/h (1 Bft)
25.04.2013 06:50 7,1 C 93 % 1026,5 hPa 0,0 mm W 270 3,2 km/h (1 Bft)
25.04.2013 06:55 7,6 C 93 % 1026,4 hPa 0,0 mm W 270 3,2 km/h (1 Bft)
25.04.2013 07:00 7,8 C 92 % 1026,5 hPa 0,0 mm W 270 3,2 km/h (1 Bft)
25.04.2013 07:05 7,8 C 92 % 1026,5 hPa 0,0 mm W 270 1,6 km/h (1 Bft)
25.04.2013 07:10 8,3 C 92 % 1026,5 hPa 0,0 mm W 270 3,2 km/h (1 Bft)
25.04.2013 07:15 8,9 C 92 % 1026,5 hPa 0,0 mm W 270 4,8 km/h (1 Bft)
25.04.2013 07:20 9,4 C 90 % 1026,4 hPa 0,0 mm W 270 4,8 km/h (1 Bft)
25.04.2013 07:25 9,9 C 89 % 1026,4 hPa 0,0 mm W 270 1,6 km/h (1 Bft)
25.04.2013 07:30 10,3 C 88 % 1026,5 hPa 0,0 mm W 270 1,6 km/h (1 Bft)
25.04.2013 07:35 10,7 C 87 % 1026,5 hPa 0,0 mm N 0 0,0 km/h (0 Bft)
25.04.2013 07:40 11,2 C 87 % 1026,5 hPa 0,0 mm W 270 1,6 km/h (1 Bft)
25.04.2013 07:45 11,7 C 86 % 1026,5 hPa 0,0 mm W 270 1,6 km/h (1 Bft)
25.04.2013 07:50 11,6 C 85 % 1026,5 hPa 0,0 mm W 270 3,2 km/h (1 Bft)
25.04.2013 07:55 11,9 C 85 % 1026,4 hPa 0,0 mm W 270 1,6 km/h (1 Bft)
25.04.2013 08:00 12,3 C 85 % 1026,4 hPa 0,0 mm W 270 1,6 km/h (1 Bft)
25.04.2013 08:05 12,1 C 87 % 1026,4 hPa 0,0 mm N 0 0,0 km/h (0 Bft)
25.04.2013 08:10 12,1 C 86 % 1026,4 hPa 0,0 mm N 0 0,0 km/h (0 Bft)
25.04.2013 08:15 12,2 C 86 % 1026,4 hPa 0,0 mm N 0 0,0 km/h (0 Bft)
25.04.2013 08:20 12,6 C 84 % 1026,4 hPa 0,0 mm N 0 0,0 km/h (0 Bft)
25.04.2013 08:25 12,7 C 84 % 1026,4 hPa 0,0 mm N 0 0,0 km/h (0 Bft)
25.04.2013 08:30 13,0 C 85 % 1026,4 hPa 0,0 mm N 0 0,0 km/h (0 Bft)
25.04.2013 08:35 13,1 C 83 % 1026,3 hPa 0,0 mm W 270 1,6 km/h (1 Bft)
25.04.2013 08:40 13,4 C 84 % 1026,3 hPa 0,0 mm W 270 1,6 km/h (1 Bft)
25.04.2013 08:45 13,8 C 84 % 1026,3 hPa 0,0 mm W 270 1,6 km/h (1 Bft)
25.04.2013 08:50 14,2 C 82 % 1026,4 hPa 0,0 mm W-NW 292 1,6 km/h (1 Bft)
25.04.2013 08:55 14,2 C 82 % 1026,5 hPa 0,0 mm W-NW 292 1,6 km/h (1 Bft)
25.04.2013 09:00 14,5 C 80 % 1026,4 hPa 0,0 mm W-NW 292 3,2 km/h (1 Bft)
25.04.2013 09:05 14,7 C 80 % 1026,4 hPa 0,0 mm NO 45 3,2 km/h (1 Bft)
25.04.2013 09:10 14,9 C 80 % 1026,4 hPa 0,0 mm NO 45 3,2 km/h (1 Bft)
25.04.2013 09:15 15,0 C 78 % 1026,4 hPa 0,0 mm NO 45 3,2 km/h (1 Bft)
25.04.2013 09:20 15,2 C 80 % 1026,4 hPa 0,0 mm NO 45 3,2 km/h (1 Bft)
25.04.2013 09:25 15,4 C 80 % 1026,3 hPa 0,0 mm NO 45 4,8 km/h (1 Bft)
25.04.2013 09:30 15,7 C 80 % 1026,3 hPa 0,0 mm NO 45 3,2 km/h (1 Bft)
25.04.2013 09:35 16,0 C 75 % 1026,3 hPa 0,0 mm NO 45 3,2 km/h (1 Bft)
25.04.2013 09:40 16,0 C 77 % 1026,2 hPa 0,0 mm O-NO 67 4,8 km/h (1 Bft)
25.04.2013 09:45 16,2 C 75 % 1026,2 hPa 0,0 mm O-NO 67 3,2 km/h (1 Bft)
25.04.2013 09:50 16,4 C 78 % 1026,2 hPa 0,0 mm O-NO 67 4,8 km/h (1 Bft)
25.04.2013 09:55 16,5 C 76 % 1026,2 hPa 0,0 mm O-NO 67 6,4 km/h (2 Bft)
25.04.2013 10:00 16,7 C 76 % 1026,1 hPa 0,0 mm O-NO 67 4,8 km/h (1 Bft)
25.04.2013 10:05 17,2 C 73 % 1026,2 hPa 0,0 mm O-NO 67 3,2 km/h (1 Bft)
25.04.2013 10:10 17,3 C 74 % 1026,1 hPa 0,0 mm O 90 4,8 km/h (1 Bft)
25.04.2013 10:15 17,4 C 73 % 1026,1 hPa 0,0 mm O-NO 67 4,8 km/h (1 Bft)
25.04.2013 10:20 17,6 C 76 % 1026,1 hPa 0,0 mm O-SO 112 4,8 km/h (1 Bft)
25.04.2013 10:25 17,9 C 74 % 1026,1 hPa 0,0 mm O-SO 112 6,4 km/h (2 Bft)
25.04.2013 10:30 18,2 C 70 % 1026,0 hPa 0,0 mm O-SO 112 6,4 km/h (2 Bft)
25.04.2013 10:35 18,4 C 72 % 1026,0 hPa 0,0 mm O-SO 112 6,4 km/h (2 Bft)
25.04.2013 10:40 18,6 C 68 % 1026,0 hPa 0,0 mm O 90 3,2 km/h (1 Bft)
25.04.2013 10:45 19,1 C 64 % 1025,9 hPa 0,0 mm O 90 4,8 km/h (1 Bft)
25.04.2013 10:50 19,1 C 64 % 1025,9 hPa 0,0 mm SO 135 6,4 km/h (2 Bft)
25.04.2013 10:55 19,2 C 65 % 1025,9 hPa 0,0 mm S-SO 157 6,4 km/h (2 Bft)
25.04.2013 11:00 19,2 C 60 % 1025,9 hPa 0,0 mm S-SO 157 4,8 km/h (1 Bft)
25.04.2013 11:05 19,4 C 62 % 1025,9 hPa 0,0 mm S 180 6,4 km/h (2 Bft)
25.04.2013 11:10 19,5 C 64 % 1025,9 hPa 0,0 mm SO 135 4,8 km/h (1 Bft)
25.04.2013 11:15 19,4 C 58 % 1025,8 hPa 0,0 mm SO 135 6,4 km/h (2 Bft)
25.04.2013 11:20 19,7 C 58 % 1025,8 hPa 0,0 mm S 180 6,4 km/h (2 Bft)
25.04.2013 11:25 19,9 C 56 % 1025,7 hPa 0,0 mm S 180 6,4 km/h (2 Bft)
25.04.2013 11:30 19,9 C 55 % 1025,8 hPa 0,0 mm SO 135 4,8 km/h (1 Bft)
25.04.2013 11:35 19,9 C 59 % 1025,7 hPa 0,0 mm S-SO 163 4,8 km/h (1 Bft)
25.04.2013 11:40 20,2 C 58 % 1025,6 hPa 0,0 mm O-NO 62 4,8 km/h (1 Bft)
25.04.2013 11:45 20,1 C 56 % 1025,5 hPa 0,0 mm O-NO 61 4,8 km/h (1 Bft)
25.04.2013 11:50 20,4 C 53 % 1025,4 hPa 0,0 mm N-NW 340 4,8 km/h (1 Bft)
25.04.2013 11:55 20,5 C 57 % 1025,4 hPa 0,0 mm SO 142 6,4 km/h (2 Bft)
25.04.2013 12:00 20,7 C 51 % 1025,4 hPa 0,0 mm S 186 8,0 km/h (2 Bft)
25.04.2013 12:05 20,7 C 53 % 1025,3 hPa 0,0 mm O-SO 116 8,0 km/h (2 Bft)
25.04.2013 12:10 20,7 C 58 % 1025,3 hPa 0,0 mm S 179 6,4 km/h (2 Bft)
25.04.2013 12:15 20,8 C 56 % 1025,2 hPa 0,0 mm O-SO 120 6,4 km/h (2 Bft)
25.04.2013 12:20 20,9 C 54 % 1025,2 hPa 0,0 mm S-SO 157 6,4 km/h (2 Bft)
25.04.2013 12:25 20,7 C 48 % 1025,1 hPa 0,0 mm O 84 6,4 km/h (2 Bft)
25.04.2013 12:30 21,4 C 48 % 1025,0 hPa 0,0 mm N-NO 19 8,0 km/h (2 Bft)
25.04.2013 12:35 21,7 C 54 % 1025,0 hPa 0,0 mm W-NW 285 3,2 km/h (1 Bft)
25.04.2013 12:40 22,6 C 48 % 1024,9 hPa 0,0 mm W-NW 298 4,8 km/h (1 Bft)
25.04.2013 12:45 22,7 C 52 % 1024,7 hPa 0,0 mm W-NW 294 1,6 km/h (1 Bft)
25.04.2013 12:50 22,0 C 49 % 1024,7 hPa 0,0 mm S 170 4,8 km/h (1 Bft)
25.04.2013 12:55 21,4 C 51 % 1024,6 hPa 0,0 mm S-SO 163 4,8 km/h (1 Bft)
25.04.2013 13:00 21,3 C 59 % 1024,6 hPa 0,0 mm S 169 4,8 km/h (1 Bft)
25.04.2013 13:05 21,7 C 52 % 1024,5 hPa 0,0 mm S-SO 161 4,8 km/h (1 Bft)
25.04.2013 13:10 22,3 C 49 % 1024,4 hPa 0,0 mm W 274 9,7 km/h (2 Bft)
25.04.2013 13:15 22,5 C 49 % 1024,3 hPa 0,0 mm SW 233 6,4 km/h (2 Bft)
25.04.2013 13:20 21,7 C 54 % 1024,3 hPa 0,0 mm O-SO 116 9,7 km/h (2 Bft)
25.04.2013 13:25 21,7 C 56 % 1024,3 hPa 0,0 mm O-SO 119 8,0 km/h (2 Bft)
25.04.2013 13:30 21,6 C 57 % 1024,2 hPa 0,0 mm NO 53 9,7 km/h (2 Bft)
25.04.2013 13:35 21,6 C 51 % 1024,1 hPa 0,0 mm N-NO 20 9,7 km/h (2 Bft)
25.04.2013 13:40 22,1 C 53 % 1024,0 hPa 0,0 mm NO 34 4,8 km/h (1 Bft)
25.04.2013 13:45 22,4 C 55 % 1023,9 hPa 0,0 mm NO 46 8,0 km/h (2 Bft)
25.04.2013 13:50 22,2 C 47 % 1023,9 hPa 0,0 mm N 11 12,9 km/h (3 Bft)
25.04.2013 13:55 22,1 C 45 % 1023,8 hPa 0,0 mm NW 309 11,3 km/h (2 Bft)
25.04.2013 14:00 22,1 C 46 % 1023,8 hPa 0,0 mm N-NO 28 6,4 km/h (2 Bft)
25.04.2013 14:05 22,4 C 47 % 1023,8 hPa 0,0 mm SO 146 8,0 km/h (2 Bft)
25.04.2013 14:10 21,9 C 49 % 1023,8 hPa 0,0 mm SO 138 9,7 km/h (2 Bft)
25.04.2013 14:15 21,8 C 51 % 1023,7 hPa 0,0 mm O-SO 119 9,7 km/h (2 Bft)
25.04.2013 14:20 21,7 C 48 % 1023,6 hPa 0,0 mm SO 134 6,4 km/h (2 Bft)
25.04.2013 14:25 22,3 C 44 % 1023,5 hPa 0,0 mm W 279 6,4 km/h (2 Bft)
25.04.2013 14:30 22,5 C 49 % 1023,5 hPa 0,0 mm O-SO 113 8,0 km/h (2 Bft)
25.04.2013 14:35 22,2 C 46 % 1023,4 hPa 0,0 mm O-SO 117 4,8 km/h (1 Bft)
25.04.2013 14:40 21,9 C 43 % 1023,3 hPa 0,0 mm O 79 6,4 km/h (2 Bft)
25.04.2013 14:45 21,8 C 52 % 1023,3 hPa 0,0 mm O-NO 74 3,2 km/h (1 Bft)
25.04.2013 14:50 22,3 C 49 % 1023,2 hPa 0,0 mm N-NO 28 6,4 km/h (2 Bft)
25.04.2013 14:55 22,3 C 39 % 1023,2 hPa 0,0 mm N-NO 32 6,4 km/h (2 Bft)
25.04.2013 15:00 22,2 C 50 % 1023,1 hPa 0,0 mm S-SO 152 3,2 km/h (1 Bft)
25.04.2013 15:05 22,1 C 43 % 1023,0 hPa 0,0 mm S 180 4,8 km/h (1 Bft)
25.04.2013 15:10 22,3 C 47 % 1022,9 hPa 0,0 mm S-SW 207 3,2 km/h (1 Bft)
25.04.2013 15:15 22,4 C 41 % 1022,9 hPa 0,0 mm S-SO 160 4,8 km/h (1 Bft)
25.04.2013 15:20 22,2 C 47 % 1022,8 hPa 0,0 mm S 173 6,4 km/h (2 Bft)
25.04.2013 15:25 21,9 C 41 % 1022,8 hPa 0,0 mm O-SO 123 8,0 km/h (2 Bft)
25.04.2013 15:30 22,1 C 48 % 1022,7 hPa 0,0 mm NO 40 4,8 km/h (1 Bft)
25.04.2013 15:35 22,1 C 43 % 1022,7 hPa 0,0 mm O 90 3,2 km/h (1 Bft)
25.04.2013 15:40 21,9 C 42 % 1022,6 hPa 0,0 mm O 94 3,2 km/h (1 Bft)
25.04.2013 15:45 22,3 C 42 % 1022,5 hPa 0,0 mm W 267 6,4 km/h (2 Bft)
25.04.2013 15:50 23,2 C 38 % 1022,4 hPa 0,0 mm W 273 6,4 km/h (2 Bft)
25.04.2013 15:55 22,3 C 43 % 1022,4 hPa 0,0 mm S 178 1,6 km/h (1 Bft)
25.04.2013 16:00 22,1 C 50 % 1022,2 hPa 0,0 mm S-SO 151 4,8 km/h (1 Bft)
25.04.2013 16:05 22,0 C 42 % 1022,1 hPa 0,0 mm SO 134 4,8 km/h (1 Bft)
25.04.2013 16:10 21,9 C 47 % 1022,1 hPa 0,0 mm NO 36 6,4 km/h (2 Bft)
25.04.2013 16:15 22,0 C 46 % 1022,1 hPa 0,0 mm O-NO 61 6,4 km/h (2 Bft)
25.04.2013 16:20 22,1 C 39 % 1022,1 hPa 0,0 mm O-NO 74 3,2 km/h (1 Bft)
25.04.2013 16:25 21,9 C 44 % 1022,1 hPa 0,0 mm O-NO 75 1,6 km/h (1 Bft)
25.04.2013 16:30 22,2 C 38 % 1022,0 hPa 0,0 mm O-SO 119 3,2 km/h (1 Bft)
25.04.2013 16:35 22,3 C 42 % 1021,9 hPa 0,0 mm SO 126 4,8 km/h (1 Bft)
25.04.2013 16:40 21,9 C 44 % 1022,0 hPa 0,0 mm SO 140 8,0 km/h (2 Bft)
25.04.2013 16:45 21,8 C 42 % 1021,9 hPa 0,0 mm S-SO 155 8,0 km/h (2 Bft)
25.04.2013 16:50 21,9 C 45 % 1021,9 hPa 0,0 mm O 95 6,4 km/h (2 Bft)
25.04.2013 16:55 22,0 C 41 % 1021,8 hPa 0,0 mm S-SO 165 4,8 km/h (1 Bft)
25.04.2013 17:00 22,0 C 40 % 1021,8 hPa 0,0 mm S-SO 157 6,4 km/h (2 Bft)
25.04.2013 17:05 22,1 C 39 % 1021,8 hPa 0,0 mm S-SO 168 4,8 km/h (1 Bft)
25.04.2013 17:10 22,1 C 46 % 1021,8 hPa 0,0 mm SO 128 4,8 km/h (1 Bft)
25.04.2013 17:15 22,1 C 39 % 1021,7 hPa 0,0 mm SO 144 4,8 km/h (1 Bft)
25.04.2013 17:20 22,2 C 38 % 1021,6 hPa 0,0 mm S-SO 153 3,2 km/h (1 Bft)
25.04.2013 17:25 22,0 C 44 % 1021,5 hPa 0,0 mm O 96 8,0 km/h (2 Bft)
25.04.2013 17:30 22,0 C 40 % 1021,5 hPa 0,0 mm O-SO 105 4,8 km/h (1 Bft)
25.04.2013 17:35 21,8 C 47 % 1021,4 hPa 0,0 mm O-SO 121 8,0 km/h (2 Bft)
25.04.2013 17:40 21,8 C 43 % 1021,4 hPa 0,0 mm O 97 4,8 km/h (1 Bft)
25.04.2013 17:45 21,9 C 38 % 1021,3 hPa 0,0 mm O 97 3,2 km/h (1 Bft)
25.04.2013 17:50 21,9 C 46 % 1021,3 hPa 0,0 mm NO 49 6,4 km/h (2 Bft)
25.04.2013 17:55 21,9 C 44 % 1021,2 hPa 0,0 mm O 80 4,8 km/h (1 Bft)
25.04.2013 18:00 21,7 C 51 % 1021,2 hPa 0,0 mm SO 128 6,4 km/h (2 Bft)
25.04.2013 18:05 21,6 C 47 % 1021,2 hPa 0,0 mm SO 142 6,4 km/h (2 Bft)
25.04.2013 18:10 21,5 C 43 % 1021,1 hPa 0,0 mm O 81 9,7 km/h (2 Bft)
25.04.2013 18:15 21,4 C 44 % 1021,1 hPa 0,0 mm NO 42 11,3 km/h (2 Bft)
25.04.2013 18:20 21,6 C 43 % 1021,1 hPa 0,0 mm NO 42 9,7 km/h (2 Bft)
25.04.2013 18:25 21,6 C 42 % 1020,9 hPa 0,0 mm NO 49 8,0 km/h (2 Bft)
25.04.2013 18:30 21,6 C 43 % 1020,9 hPa 0,0 mm N-NO 29 8,0 km/h (2 Bft)
25.04.2013 18:35 21,4 C 41 % 1020,9 hPa 0,0 mm NO 51 9,7 km/h (2 Bft)
25.04.2013 18:40 21,3 C 40 % 1020,9 hPa 0,0 mm NO 50 9,7 km/h (2 Bft)
25.04.2013 18:45 21,4 C 41 % 1020,8 hPa 0,0 mm NO 38 9,7 km/h (2 Bft)
25.04.2013 18:50 21,4 C 39 % 1020,8 hPa 0,0 mm N-NO 12 6,4 km/h (2 Bft)
25.04.2013 18:55 21,1 C 40 % 1020,8 hPa 0,0 mm N 9 9,7 km/h (2 Bft)
25.04.2013 19:00 21,0 C 42 % 1020,7 hPa 0,0 mm NO 43 6,4 km/h (2 Bft)
25.04.2013 19:05 20,7 C 43 % 1020,7 hPa 0,0 mm O 96 1,6 km/h (1 Bft)
25.04.2013 19:10 20,6 C 42 % 1020,6 hPa 0,0 mm N-NO 16 8,0 km/h (2 Bft)
25.04.2013 19:15 20,3 C 45 % 1020,5 hPa 0,0 mm N-NO 19 1,6 km/h (1 Bft)
25.04.2013 19:20 19,8 C 48 % 1020,5 hPa 0,0 mm N-NO 29 1,6 km/h (1 Bft)
25.04.2013 19:25 19,5 C 48 % 1020,5 hPa 0,0 mm N-NO 29 1,6 km/h (1 Bft)
25.04.2013 19:30 19,4 C 48 % 1020,6 hPa 0,0 mm O 85 1,6 km/h (1 Bft)
25.04.2013 19:35 19,2 C 49 % 1020,6 hPa 0,0 mm O 85 0,0 km/h (0 Bft)
25.04.2013 19:40 18,8 C 52 % 1020,5 hPa 0,0 mm O 85 0,0 km/h (0 Bft)
25.04.2013 19:45 18,4 C 54 % 1020,6 hPa 0,0 mm O 83 3,2 km/h (1 Bft)
25.04.2013 19:50 17,7 C 58 % 1020,6 hPa 0,0 mm O 83 0,0 km/h (0 Bft)
25.04.2013 19:55 17,3 C 58 % 1020,5 hPa 0,0 mm O 83 0,0 km/h (0 Bft)
25.04.2013 20:00 17,3 C 58 % 1020,5 hPa 0,0 mm O 83 1,6 km/h (1 Bft)
25.04.2013 20:05 16,8 C 60 % 1020,5 hPa 0,0 mm O 83 0,0 km/h (0 Bft)
25.04.2013 20:10 16,2 C 63 % 1020,5 hPa 0,0 mm O 83 1,6 km/h (1 Bft)
25.04.2013 20:15 15,9 C 63 % 1020,5 hPa 0,0 mm O 83 0,0 km/h (0 Bft)
25.04.2013 20:20 15,9 C 63 % 1020,5 hPa 0,0 mm O 83 0,0 km/h (0 Bft)
25.04.2013 20:25 15,7 C 64 % 1020,5 hPa 0,0 mm S-SO 156 3,2 km/h (1 Bft)
25.04.2013 20:30 15,3 C 66 % 1020,5 hPa 0,0 mm W 271 3,2 km/h (1 Bft)
25.04.2013 20:35 14,8 C 69 % 1020,6 hPa 0,0 mm W 271 0,0 km/h (0 Bft)
25.04.2013 20:40 14,4 C 71 % 1020,6 hPa 0,0 mm W 271 1,6 km/h (1 Bft)
25.04.2013 20:45 14,1 C 72 % 1020,6 hPa 0,0 mm W 271 1,6 km/h (1 Bft)
25.04.2013 20:50 13,8 C 73 % 1020,6 hPa 0,0 mm W 271 0,0 km/h (0 Bft)
25.04.2013 20:55 13,6 C 74 % 1020,6 hPa 0,0 mm W 271 0,0 km/h (0 Bft)
25.04.2013 21:00 13,3 C 76 % 1020,6 hPa 0,0 mm W 271 1,6 km/h (1 Bft)
25.04.2013 21:05 13,2 C 76 % 1020,6 hPa 0,0 mm W 271 3,2 km/h (1 Bft)
25.04.2013 21:10 13,2 C 76 % 1020,6 hPa 0,0 mm W 271 3,2 km/h (1 Bft)
25.04.2013 21:15 13,1 C 77 % 1020,6 hPa 0,0 mm W 271 1,6 km/h (1 Bft)
25.04.2013 21:20 13,1 C 77 % 1020,6 hPa 0,0 mm W 271 1,6 km/h (1 Bft)
25.04.2013 21:25 12,9 C 77 % 1020,6 hPa 0,0 mm W 271 1,6 km/h (1 Bft)
25.04.2013 21:30 12,7 C 77 % 1020,6 hPa 0,0 mm W 271 1,6 km/h (1 Bft)
25.04.2013 21:35 12,6 C 78 % 1020,6 hPa 0,0 mm W 271 1,6 km/h (1 Bft)
25.04.2013 21:40 12,4 C 79 % 1020,6 hPa 0,0 mm W 271 1,6 km/h (1 Bft)
25.04.2013 21:45 12,1 C 79 % 1020,5 hPa 0,0 mm W 271 3,2 km/h (1 Bft)
25.04.2013 21:50 12,1 C 81 % 1020,5 hPa 0,0 mm W 271 0,0 km/h (0 Bft)
25.04.2013 21:55 12,3 C 80 % 1020,5 hPa 0,0 mm W 271 0,0 km/h (0 Bft)
25.04.2013 22:00 12,3 C 80 % 1020,5 hPa 0,0 mm W 271 0,0 km/h (0 Bft)
25.04.2013 22:05 12,1 C 81 % 1020,5 hPa 0,0 mm W 271 0,0 km/h (0 Bft)
25.04.2013 22:10 11,7 C 81 % 1020,5 hPa 0,0 mm W 271 1,6 km/h (1 Bft)
25.04.2013 22:15 11,3 C 82 % 1020,6 hPa 0,0 mm W 271 0,0 km/h (0 Bft)
25.04.2013 22:20 11,0 C 83 % 1020,6 hPa 0,0 mm W 271 0,0 km/h (0 Bft)
25.04.2013 22:25 10,7 C 83 % 1020,5 hPa 0,0 mm W 271 0,0 km/h (0 Bft)
25.04.2013 22:30 10,5 C 85 % 1020,5 hPa 0,0 mm W 271 1,6 km/h (1 Bft)
25.04.2013 22:35 10,6 C 85 % 1020,5 hPa 0,0 mm W 271 1,6 km/h (1 Bft)
25.04.2013 22:40 10,9 C 84 % 1020,5 hPa 0,0 mm W 271 1,6 km/h (1 Bft)
25.04.2013 22:45 11,2 C 84 % 1020,5 hPa 0,0 mm W 271 1,6 km/h (1 Bft)
25.04.2013 22:50 11,2 C 83 % 1020,5 hPa 0,0 mm W 271 0,0 km/h (0 Bft)
25.04.2013 22:55 10,9 C 84 % 1020,5 hPa 0,0 mm W 271 0,0 km/h (0 Bft)
25.04.2013 23:00 10,6 C 84 % 1020,4 hPa 0,0 mm W 271 0,0 km/h (0 Bft)
25.04.2013 23:05 10,5 C 85 % 1020,4 hPa 0,0 mm W 271 0,0 km/h (0 Bft)
25.04.2013 23:10 10,6 C 85 % 1020,4 hPa 0,0 mm W 271 0,0 km/h (0 Bft)
25.04.2013 23:15 10,5 C 84 % 1020,4 hPa 0,0 mm W 271 1,6 km/h (1 Bft)
25.04.2013 23:20 10,3 C 85 % 1020,3 hPa 0,0 mm W 271 0,0 km/h (0 Bft)
25.04.2013 23:25 10,3 C 85 % 1020,3 hPa 0,0 mm W 271 0,0 km/h (0 Bft)
25.04.2013 23:30 10,3 C 85 % 1020,3 hPa 0,0 mm W 271 0,0 km/h (0 Bft)
25.04.2013 23:35 10,1 C 85 % 1020,1 hPa 0,0 mm W 271 0,0 km/h (0 Bft)
25.04.2013 23:40 10,0 C 85 % 1020,1 hPa 0,0 mm W 271 0,0 km/h (0 Bft)
25.04.2013 23:45 9,8 C 86 % 1020,0 hPa 0,0 mm W 271 0,0 km/h (0 Bft)
25.04.2013 23:50 9,6 C 86 % 1020,0 hPa 0,0 mm W 271 1,6 km/h (1 Bft)
25.04.2013 23:55 9,6 C 87 % 1020,0 hPa 0,0 mm W 271 1,6 km/h (1 Bft)
_ Min-Zeit 06:15 15:50 23:45 - - - 01:15
Minimum _ 5,9 C 38 % 1020,0 hPa - - - 0,0 km/h (0 Bft)
_ Max-Zeit 12:45 04:30 00:05 00:00 - - 13:50
Maximum _ 23,3 C 93 % 1026,5 hPa 0,0 mm - - 12,9 km/h
N (3 Bft)
Durchschnitt _ 14,6 C 71 % 1024,0 hPa #0,0 mm W - 3,3 km/h (1 Bft)